Time;durP1;ratioP1;P1;durP2;ratioP2;P2;SDS_P1;SDS_P2;PMS_P1;PMS_P2;Temp;Humidity;BMP_temperature;BMP_pressure;BME280_temperature;BME280_humidity;BME280_pressure;Samples;Min_cycle;Max_cycle;Signal;HPM_P1;HPM_P2
2022/04/16 00:02:22;;;;;;;0.50;0.40;;;6.10;99.90;;;;;;5074397;28;20224;-79
2022/04/16 00:04:48;;;;;;;0.50;0.40;;;6.10;99.90;;;;;;5074374;28;20197;-79
2022/04/16 00:07:16;;;;;;;0.50;0.40;;;6.10;99.90;;;;;;5074490;28;20201;-79
2022/04/16 00:09:43;;;;;;;0.65;0.65;;;6.20;99.90;;;;;;5074728;28;20198;-78
2022/04/16 00:12:10;;;;;;;0.50;0.40;;;6.20;99.90;;;;;;5078600;28;20217;-80
2022/04/16 00:14:38;;;;;;;0.50;0.40;;;6.10;99.90;;;;;;5074332;28;20403;-79
2022/04/16 00:17:05;;;;;;;0.50;0.40;;;6.10;99.90;;;;;;5075479;28;20249;-79
2022/04/16 00:19:32;;;;;;;0.60;0.40;;;6.10;99.90;;;;;;5079178;28;20194;-78
2022/04/16 00:22:00;;;;;;;0.50;0.40;;;6.20;99.90;;;;;;5086676;28;20252;-80
2022/04/16 00:24:28;;;;;;;0.50;0.40;;;6.10;99.90;;;;;;5085904;28;20261;-80
2022/04/16 00:26:54;;;;;;;18.90;2.50;;;6.10;99.90;;;;;;5080523;28;20631;-79
2022/04/16 00:29:21;;;;;;;1.13;1.13;;;6.10;99.90;;;;;;5076787;28;20197;-79
2022/04/16 00:31:48;;;;;;;0.50;0.40;;;6.20;99.90;;;;;;5082097;28;20214;-80
2022/04/16 00:34:15;;;;;;;0.50;0.40;;;6.10;99.90;;;;;;5088077;28;20209;-78
2022/04/16 00:36:42;;;;;;;0.50;0.40;;;6.10;99.90;;;;;;5079923;28;20198;-80
2022/04/16 00:39:09;;;;;;;0.50;0.40;;;6.10;99.90;;;;;;5081588;28;20212;-79
2022/04/16 00:41:39;;;;;;;0.50;0.40;;;6.10;99.90;;;;;;5078190;28;20221;-80
2022/04/16 00:44:06;;;;;;;0.50;0.40;;;6.10;99.90;;;;;;5080613;28;20224;-80
2022/04/16 00:46:34;;;;;;;1.75;1.58;;;6.10;99.90;;;;;;5082210;28;20194;-79
2022/04/16 00:49:01;;;;;;;0.60;0.60;;;6.10;99.90;;;;;;5082342;28;20194;-76
2022/04/16 00:51:28;;;;;;;0.50;0.50;;;6.10;99.90;;;;;;5082480;28;20244;-78
2022/04/16 00:53:55;;;;;;;0.60;0.50;;;6.00;99.90;;;;;;5083682;28;20209;-79
2022/04/16 00:56:22;;;;;;;0.50;0.40;;;6.00;99.90;;;;;;5083752;28;20558;-78
2022/04/16 00:58:51;;;;;;;0.50;0.40;;;6.00;99.90;;;;;;5078811;28;20217;-78
2022/04/16 01:01:18;;;;;;;0.50;0.40;;;5.90;99.90;;;;;;5073870;28;20703;-78
2022/04/16 01:03:45;;;;;;;0.50;0.40;;;5.90;99.90;;;;;;5074564;28;20197;-78
2022/04/16 01:06:15;;;;;;;0.50;0.40;;;5.90;99.90;;;;;;5079524;28;20194;-78
2022/04/16 01:08:44;;;;;;;0.50;0.40;;;5.80;99.90;;;;;;5082284;28;20205;-80
2022/04/16 01:11:12;;;;;;;0.50;0.40;;;5.80;99.90;;;;;;5081396;28;20221;-78
2022/04/16 01:13:39;;;;;;;0.50;0.40;;;5.80;99.90;;;;;;5080375;28;20224;-78
2022/04/16 01:16:07;;;;;;;0.50;0.40;;;5.80;99.90;;;;;;5074798;28;20194;-78
2022/04/16 01:18:35;;;;;;;0.50;0.40;;;5.70;99.90;;;;;;5075300;28;20313;-78
2022/04/16 01:21:02;;;;;;;0.50;0.40;;;5.70;99.90;;;;;;5074664;28;20190;-78
2022/04/16 01:23:31;;;;;;;0.50;0.40;;;5.70;99.90;;;;;;5075949;28;20204;-77
2022/04/16 01:25:57;;;;;;;0.50;0.40;;;5.70;99.90;;;;;;5076205;28;20194;-75
2022/04/16 01:28:24;;;;;;;0.50;0.40;;;5.70;99.90;;;;;;5076228;28;20194;-77
2022/04/16 01:30:51;;;;;;;0.50;0.40;;;5.70;99.90;;;;;;5075451;28;20271;-78
2022/04/16 01:33:18;;;;;;;0.50;0.43;;;5.70;99.90;;;;;;5075711;28;20198;-78
2022/04/16 01:35:45;;;;;;;1.70;1.60;;;5.60;99.90;;;;;;5076013;28;20193;-78
2022/04/16 01:38:11;;;;;;;0.50;0.40;;;5.60;99.90;;;;;;5075393;28;20233;-78
2022/04/16 01:40:40;;;;;;;0.50;0.40;;;5.60;99.90;;;;;;5075540;28;20565;-78
2022/04/16 01:43:07;;;;;;;0.50;0.40;;;5.60;99.90;;;;;;5075708;28;20217;-78
2022/04/16 01:45:33;;;;;;;0.50;0.40;;;5.60;99.90;;;;;;5075604;28;20194;-78
2022/04/16 01:48:00;;;;;;;0.60;0.60;;;5.60;99.90;;;;;;5075831;28;20213;-75
2022/04/16 01:50:28;;;;;;;1.70;1.60;;;5.50;99.90;;;;;;5075420;28;20194;-78
2022/04/16 01:52:55;;;;;;;0.50;0.40;;;5.40;99.90;;;;;;5075848;28;20225;-78
2022/04/16 01:55:22;;;;;;;0.50;0.40;;;5.40;99.90;;;;;;5075560;28;20182;-78
2022/04/16 01:57:51;;;;;;;0.50;0.40;;;5.40;99.90;;;;;;5075421;28;20206;-78
2022/04/16 02:00:19;;;;;;;0.60;0.45;;;5.40;99.90;;;;;;5074907;28;20256;-78
2022/04/16 02:02:46;;;;;;;0.50;0.40;;;5.40;99.90;;;;;;5075147;28;20214;-78
2022/04/16 02:05:13;;;;;;;0.50;0.40;;;5.40;99.90;;;;;;5075092;28;20190;-78
2022/04/16 02:07:42;;;;;;;0.50;0.40;;;5.40;99.90;;;;;;5074857;28;20667;-78
2022/04/16 02:10:09;;;;;;;0.50;0.40;;;5.40;99.90;;;;;;5074562;28;20248;-78
2022/04/16 02:12:37;;;;;;;0.50;0.40;;;5.40;99.90;;;;;;5075155;28;20225;-78
2022/04/16 02:15:06;;;;;;;0.50;0.40;;;5.30;99.90;;;;;;5074147;28;20248;-78
2022/04/16 02:17:33;;;;;;;0.50;0.40;;;5.30;99.90;;;;;;5075102;28;20190;-78
2022/04/16 02:20:00;;;;;;;0.80;0.80;;;5.20;99.90;;;;;;5074330;28;20193;-78
2022/04/16 02:22:26;;;;;;;0.50;0.40;;;5.20;99.90;;;;;;5087575;22;20221;-74
2022/04/16 02:24:53;;;;;;;0.50;0.40;;;5.10;99.90;;;;;;5063938;28;20198;-77
2022/04/16 02:27:20;;;;;;;0.50;0.40;;;5.10;99.90;;;;;;5053641;28;20560;-74
2022/04/16 02:29:47;;;;;;;0.60;0.60;;;5.10;99.90;;;;;;5051784;28;20281;-75
2022/04/16 02:32:15;;;;;;;0.50;0.40;;;5.10;99.90;;;;;;5053401;28;20214;-75
2022/04/16 02:34:41;;;;;;;0.50;0.40;;;5.20;99.90;;;;;;5053327;28;20568;-74
2022/04/16 02:37:08;;;;;;;0.50;0.40;;;5.20;99.90;;;;;;5053298;28;20550;-75
2022/04/16 02:39:35;;;;;;;0.88;0.88;;;5.10;99.90;;;;;;5052302;28;20225;-75
2022/04/16 02:42:02;;;;;;;0.50;0.40;;;5.10;99.90;;;;;;5052981;28;20214;-75
2022/04/16 02:47:13;;;;;;;0.50;0.40;;;5.00;99.90;;;;;;5052874;28;20186;-74
2022/04/16 02:49:43;;;;;;;0.50;0.40;;;5.20;99.90;;;;;;5052049;28;20718;-74
2022/04/16 02:52:10;;;;;;;0.50;0.40;;;5.20;99.90;;;;;;5052793;28;20219;-74
2022/04/16 02:54:37;;;;;;;0.50;0.40;;;5.20;99.90;;;;;;5052509;28;20195;-75
2022/04/16 02:57:04;;;;;;;0.50;0.40;;;5.20;99.90;;;;;;5052514;28;20203;-74
2022/04/16 02:59:33;;;;;;;0.50;0.40;;;5.30;99.90;;;;;;5051884;28;20215;-75
2022/04/16 03:02:00;;;;;;;0.50;0.40;;;5.30;99.90;;;;;;5052719;28;20264;-75
2022/04/16 03:04:27;;;;;;;0.50;0.40;;;5.40;99.90;;;;;;5052454;28;20198;-75
2022/04/16 03:06:55;;;;;;;0.55;0.55;;;5.40;99.90;;;;;;5052285;28;20656;-75
2022/04/16 03:09:22;;;;;;;0.50;0.40;;;5.40;99.90;;;;;;5051867;28;20222;-75
2022/04/16 03:11:49;;;;;;;0.50;0.40;;;5.50;99.90;;;;;;5052480;28;20204;-72
2022/04/16 03:19:45;;;;;;;0.50;0.40;;;5.60;99.90;;;;;;5051173;28;20221;-74
2022/04/16 03:22:13;;;;;;;0.50;0.40;;;5.60;99.90;;;;;;5051983;28;20222;-75
2022/04/16 03:24:40;;;;;;;0.50;0.40;;;5.60;99.90;;;;;;5052370;28;20240;-72
2022/04/16 03:27:08;;;;;;;0.50;0.40;;;5.70;99.90;;;;;;5051038;28;20195;-75
2022/04/16 03:29:35;;;;;;;0.50;0.40;;;5.70;99.90;;;;;;5051339;28;20194;-75
2022/04/16 03:32:02;;;;;;;0.50;0.40;;;5.70;99.90;;;;;;5051909;28;20337;-75
2022/04/16 03:34:28;;;;;;;0.50;0.40;;;5.70;99.90;;;;;;5051893;28;20201;-74
2022/04/16 03:36:55;;;;;;;0.52;0.40;;;5.70;99.90;;;;;;5051511;28;20858;-75
2022/04/16 03:39:23;;;;;;;2.05;1.95;;;5.60;99.90;;;;;;5050940;28;20215;-75
2022/04/16 03:41:50;;;;;;;0.50;0.40;;;5.60;99.90;;;;;;5051723;28;20198;-75
2022/04/16 03:44:17;;;;;;;0.50;0.40;;;5.60;99.90;;;;;;5051689;28;20198;-75
2022/04/16 03:46:44;;;;;;;0.50;0.40;;;5.70;99.90;;;;;;5051697;28;20199;-73
2022/04/16 03:49:10;;;;;;;0.50;0.40;;;5.70;99.90;;;;;;5051030;28;20731;-75
2022/04/16 03:51:37;;;;;;;0.50;0.40;;;5.70;99.90;;;;;;5051802;28;20199;-72
2022/04/16 04:02:15;;;;;;;0.50;0.40;;;5.90;99.90;;;;;;5051454;28;20629;-75
2022/04/16 04:04:43;;;;;;;0.50;0.40;;;6.00;99.90;;;;;;5051628;28;20198;-71
2022/04/16 04:07:10;;;;;;;0.50;0.40;;;6.00;99.90;;;;;;5051175;28;20244;-74
2022/04/16 04:09:37;;;;;;;0.50;0.40;;;6.10;99.90;;;;;;5050985;28;20577;-75
2022/04/16 04:12:09;;;;;;;0.50;0.40;;;6.20;99.90;;;;;;5051335;28;20705;-75
2022/04/16 04:14:38;;;;;;;0.50;0.40;;;6.30;99.90;;;;;;5050318;28;20205;-75
2022/04/16 04:17:07;;;;;;;0.95;0.95;;;6.30;99.90;;;;;;5051036;28;20195;-75
2022/04/16 04:19:35;;;;;;;0.50;0.40;;;6.20;99.90;;;;;;5050802;28;20264;-74
2022/04/16 04:22:01;;;;;;;0.50;0.40;;;6.20;99.90;;;;;;5050909;28;20217;-75
2022/04/16 04:24:28;;;;;;;0.50;0.40;;;6.10;99.90;;;;;;5051350;28;20177;-75
2022/04/16 04:26:56;;;;;;;0.50;0.40;;;6.00;99.90;;;;;;5050866;28;20191;-75
2022/04/16 04:29:24;;;;;;;0.50;0.40;;;6.00;99.90;;;;;;5050495;28;20190;-76
2022/04/16 04:31:51;;;;;;;0.50;0.40;;;5.80;99.90;;;;;;5051224;28;20191;-74
2022/04/16 04:34:17;;;;;;;0.50;0.40;;;5.70;99.90;;;;;;5051389;28;20201;-75
2022/04/16 04:36:44;;;;;;;0.50;0.40;;;5.60;99.90;;;;;;5050943;28;20191;-74
2022/04/16 04:39:12;;;;;;;0.50;0.40;;;5.50;99.90;;;;;;5052568;28;20214;-76
2022/04/16 04:41:39;;;;;;;0.50;0.40;;;5.40;99.90;;;;;;5055506;28;20264;-74
2022/04/16 04:44:06;;;;;;;0.50;0.40;;;5.40;99.90;;;;;;5054855;28;20691;-75
2022/04/16 04:46:34;;;;;;;0.50;0.40;;;5.30;99.90;;;;;;5055452;28;20190;-75
2022/04/16 04:49:02;;;;;;;0.50;0.40;;;5.20;99.90;;;;;;5054358;28;20191;-75
2022/04/16 04:51:28;;;;;;;0.50;0.40;;;5.20;99.90;;;;;;5054909;28;20192;-75
2022/04/16 04:53:55;;;;;;;0.60;0.60;;;5.20;99.90;;;;;;5054728;28;20220;-75
2022/04/16 04:56:22;;;;;;;0.50;0.50;;;5.20;99.90;;;;;;5055404;28;20203;-75
2022/04/16 04:58:49;;;;;;;0.50;0.40;;;5.20;99.90;;;;;;5054210;28;20224;-74
2022/04/16 05:01:15;;;;;;;0.50;0.40;;;5.30;99.90;;;;;;5054826;28;20567;-75
2022/04/16 05:03:44;;;;;;;0.50;0.40;;;5.30;99.90;;;;;;5054731;28;20210;-73
2022/04/16 05:06:11;;;;;;;0.50;0.40;;;5.30;99.90;;;;;;5054710;28;20198;-75
2022/04/16 05:08:38;;;;;;;2.50;2.38;;;5.30;99.90;;;;;;5054757;28;20191;-75
2022/04/16 05:11:05;;;;;;;1.10;1.05;;;5.40;99.90;;;;;;5053866;28;20195;-74
2022/04/16 05:13:31;;;;;;;0.70;0.70;;;5.50;99.90;;;;;;5054335;28;20215;-75
2022/04/16 05:15:58;;;;;;;0.50;0.40;;;5.70;99.90;;;;;;5053696;28;20205;-75
2022/04/16 05:18:25;;;;;;;0.50;0.45;;;5.80;99.90;;;;;;5054810;28;20202;-75
2022/04/16 05:20:53;;;;;;;0.50;0.40;;;6.00;99.90;;;;;;5053499;28;20579;-74
2022/04/16 05:23:20;;;;;;;0.60;0.60;;;6.10;99.90;;;;;;5054314;28;20230;-75
2022/04/16 05:25:47;;;;;;;0.60;0.50;;;6.20;99.90;;;;;;5054443;28;20199;-75
2022/04/16 05:28:14;;;;;;;1.38;1.38;;;6.40;99.90;;;;;;5054458;28;20210;-73
2022/04/16 05:30:44;;;;;;;0.50;0.40;;;6.60;99.90;;;;;;5053574;28;20194;-75
2022/04/16 05:34:18;;;;;;;0.50;0.40;;;6.80;99.90;;;;;;5054337;28;20248;-75
2022/04/16 05:36:01;;;;;;;0.50;0.40;;;6.90;99.90;;;;;;5053843;28;20224;-75
2022/04/16 05:38:28;;;;;;;0.50;0.40;;;7.20;99.90;;;;;;5053733;28;20202;-73
2022/04/16 05:40:55;;;;;;;0.50;0.50;;;7.80;99.90;;;;;;5052729;28;20592;-75
2022/04/16 05:43:22;;;;;;;1.25;1.15;;;8.60;99.90;;;;;;5053981;28;20223;-76
2022/04/16 05:45:48;;;;;;;0.60;0.60;;;9.40;99.90;;;;;;5054060;28;20200;-75
2022/04/16 05:48:15;;;;;;;0.50;0.40;;;9.90;99.90;;;;;;5053867;28;20198;-75
2022/04/16 05:50:42;;;;;;;0.50;0.40;;;10.40;99.90;;;;;;5052593;28;20667;-75
2022/04/16 05:53:12;;;;;;;0.50;0.40;;;10.80;99.90;;;;;;5053954;28;20217;-75
2022/04/16 05:55:41;;;;;;;0.50;0.40;;;11.10;99.90;;;;;;5053210;28;20186;-75
2022/04/16 05:58:08;;;;;;;1.05;1.05;;;11.40;99.90;;;;;;5054050;28;20197;-75
2022/04/16 06:00:36;;;;;;;0.50;0.40;;;11.60;99.90;;;;;;5052800;28;20731;-73
2022/04/16 06:03:04;;;;;;;0.50;0.40;;;11.80;99.90;;;;;;5053711;28;20221;-75
2022/04/16 06:05:32;;;;;;;0.50;0.40;;;11.80;99.90;;;;;;5053557;28;20242;-75
2022/04/16 06:07:59;;;;;;;0.50;0.40;;;12.00;99.90;;;;;;5053542;28;20280;-75
2022/04/16 06:10:27;;;;;;;0.50;0.40;;;12.00;99.90;;;;;;5052856;28;20191;-75
2022/04/16 06:12:54;;;;;;;0.60;0.60;;;11.80;99.90;;;;;;5053774;28;20592;-75
2022/04/16 06:15:22;;;;;;;0.60;0.50;;;11.60;99.90;;;;;;5052425;28;20198;-75
2022/04/16 06:17:48;;;;;;;0.63;0.63;;;11.50;99.90;;;;;;5053352;28;20202;-75
2022/04/16 06:20:15;;;;;;;1.95;1.70;;;11.40;99.90;;;;;;5052509;28;20711;-75
2022/04/16 06:22:42;;;;;;;0.50;0.40;;;11.30;99.90;;;;;;5053048;28;20311;-75
2022/04/16 06:25:09;;;;;;;0.98;0.88;;;11.20;99.90;;;;;;5053532;28;20559;-73
2022/04/16 06:27:39;;;;;;;1.07;1.07;;;11.50;99.90;;;;;;5053076;28;20195;-75
2022/04/16 06:30:08;;;;;;;25.37;3.17;;;12.40;99.90;;;;;;5052641;28;20495;-75
2022/04/16 06:32:35;;;;;;;0.50;0.40;;;13.50;99.90;;;;;;5052784;28;20497;-75
2022/04/16 06:35:05;;;;;;;0.50;0.40;;;14.70;99.90;;;;;;5053108;28;20937;-75
2022/04/16 06:37:32;;;;;;;0.90;0.90;;;15.90;99.90;;;;;;5053078;28;20448;-76
2022/04/16 06:39:58;;;;;;;0.77;0.77;;;16.20;99.90;;;;;;5052181;28;20476;-75
2022/04/16 06:42:25;;;;;;;0.50;0.40;;;16.80;99.90;;;;;;5053063;28;20468;-76
2022/04/16 06:44:53;;;;;;;0.83;0.83;;;17.20;99.90;;;;;;5053116;28;20444;-76
2022/04/16 06:47:20;;;;;;;1.00;0.97;;;17.40;99.90;;;;;;5052346;28;20515;-76
2022/04/16 06:49:47;;;;;;;0.50;0.50;;;17.80;99.90;;;;;;5052006;28;20448;-75
2022/04/16 06:52:14;;;;;;;1.93;1.50;;;17.90;99.90;;;;;;5052659;28;20460;-75
2022/04/16 06:54:42;;;;;;;0.50;0.30;;;18.40;99.90;;;;;;5052829;28;20441;-75
2022/04/16 06:57:09;;;;;;;0.80;0.80;;;18.70;99.90;;;;;;5052475;28;20935;-75
2022/04/16 06:59:37;;;;;;;0.50;0.40;;;18.50;99.90;;;;;;5051627;28;20477;-75
2022/04/16 07:02:06;;;;;;;0.87;0.87;;;18.70;99.90;;;;;;5051288;28;20464;-74
2022/04/16 07:04:33;;;;;;;0.50;0.30;;;19.10;99.90;;;;;;5052253;28;20491;-76
2022/04/16 07:06:59;;;;;;;2.87;1.80;;;19.50;99.80;;;;;;5052532;28;20444;-75
2022/04/16 07:09:26;;;;;;;0.50;0.40;;;19.70;96.60;;;;;;5051528;28;20436;-75
2022/04/16 07:11:53;;;;;;;0.50;0.40;;;19.70;93.80;;;;;;5052155;28;20441;-75
2022/04/16 07:14:20;;;;;;;0.60;0.60;;;19.60;95.10;;;;;;5050743;28;20444;-71
2022/04/16 07:16:47;;;;;;;0.90;0.90;;;20.00;91.30;;;;;;5051510;28;20448;-74
2022/04/16 07:19:15;;;;;;;1.40;0.60;;;19.70;91.30;;;;;;5051865;28;20473;-75
2022/04/16 07:21:42;;;;;;;0.77;0.60;;;20.30;90.90;;;;;;5053137;28;20436;-76
2022/04/16 07:24:09;;;;;;;1.10;1.00;;;21.40;89.40;;;;;;5051674;28;20449;-75
2022/04/16 07:26:36;;;;;;;0.53;0.33;;;21.80;82.30;;;;;;5051615;28;20961;-76
2022/04/16 07:29:02;;;;;;;0.67;0.67;;;21.20;80.50;;;;;;5051362;28;20437;-76
2022/04/16 07:31:29;;;;;;;0.50;0.40;;;22.00;79.40;;;;;;5051756;28;20445;-76
2022/04/16 07:33:56;;;;;;;0.50;0.40;;;22.20;77.90;;;;;;5052006;28;20460;-75
2022/04/16 07:36:24;;;;;;;0.50;0.40;;;22.00;76.20;;;;;;5051967;28;20450;-76
2022/04/16 07:38:51;;;;;;;0.50;0.40;;;22.20;75.90;;;;;;5051057;28;20433;-73
2022/04/16 07:41:17;;;;;;;4.93;1.57;;;22.10;74.30;;;;;;5051722;28;20511;-75
2022/04/16 07:43:44;;;;;;;0.50;0.40;;;21.80;74.70;;;;;;5051337;28;20997;-75
2022/04/16 07:46:11;;;;;;;0.50;0.40;;;22.70;77.80;;;;;;5051365;28;20942;-75
2022/04/16 07:48:38;;;;;;;0.50;0.40;;;24.10;76.10;;;;;;5051947;28;20437;-75
2022/04/16 07:51:06;;;;;;;0.50;0.30;;;24.80;70.80;;;;;;5050778;28;20996;-75
2022/04/16 07:53:34;;;;;;;0.50;0.30;;;25.50;66.80;;;;;;5051894;28;20461;-76
2022/04/16 07:56:02;;;;;;;4.20;1.47;;;25.20;64.60;;;;;;5051381;28;20437;-75
2022/04/16 07:58:28;;;;;;;0.70;0.70;;;26.20;63.30;;;;;;5051548;28;20467;-75
2022/04/16 08:00:55;;;;;;;1.30;1.03;;;25.80;63.00;;;;;;5050708;28;20429;-75
2022/04/16 08:03:22;;;;;;;0.50;0.30;;;26.50;62.00;;;;;;5051137;28;20978;-76
2022/04/16 08:05:49;;;;;;;1.13;1.03;;;27.10;57.60;;;;;;5051510;28;20428;-76
2022/04/16 08:08:15;;;;;;;0.50;0.30;;;26.90;60.00;;;;;;5051162;28;20437;-76
2022/04/16 08:10:43;;;;;;;1.67;0.50;;;27.60;59.60;;;;;;5050473;28;20472;-76
2022/04/16 08:13:10;;;;;;;0.50;0.40;;;27.30;56.20;;;;;;5051546;28;20480;-76
2022/04/16 08:15:37;;;;;;;0.50;0.40;;;26.50;57.20;;;;;;5050248;28;20532;-76
2022/04/16 08:18:04;;;;;;;0.50;0.30;;;26.70;58.80;;;;;;5051700;28;20444;-76
2022/04/16 08:20:31;;;;;;;0.83;0.83;;;27.40;56.40;;;;;;5050636;28;20436;-74
2022/04/16 08:22:59;;;;;;;0.60;0.40;;;26.80;54.10;;;;;;5103373;22;20508;-79
2022/04/16 08:28:11;;;;;;;1.70;0.87;;;25.10;55.50;;;;;;5046919;28;20778;-77
2022/04/16 08:30:38;;;;;;;0.50;0.40;;;24.00;57.80;;;;;;5052020;28;20475;-77
2022/04/16 08:33:05;;;;;;;0.50;0.40;;;24.10;58.40;;;;;;5052951;28;20471;-78
2022/04/16 08:35:32;;;;;;;0.50;0.40;;;24.40;60.80;;;;;;5053548;28;20522;-77
2022/04/16 08:37:59;;;;;;;0.50;0.30;;;24.40;59.20;;;;;;5051190;28;20437;-80
2022/04/16 08:40:25;;;;;;;0.50;0.40;;;25.60;59.80;;;;;;5053568;28;20449;-78
2022/04/16 08:42:52;;;;;;;0.50;0.50;;;25.40;59.40;;;;;;5052690;28;20962;-76
2022/04/16 08:45:20;;;;;;;1.00;0.73;;;26.30;57.20;;;;;;5053359;28;20443;-78
2022/04/16 08:47:48;;;;;;;0.60;0.60;;;27.20;56.00;;;;;;5052147;28;20448;-77
2022/04/16 08:50:15;;;;;;;1.00;1.00;;;27.80;55.10;;;;;;5052244;28;20508;-76
2022/04/16 08:52:42;;;;;;;0.93;0.93;;;27.40;53.50;;;;;;5054002;28;20532;-78
2022/04/16 08:55:11;;;;;;;0.50;0.30;;;26.60;56.50;;;;;;5054128;28;20442;-79
2022/04/16 08:57:39;;;;;;;1.20;0.73;;;27.10;55.40;;;;;;5053527;28;20437;-77
2022/04/16 09:00:07;;;;;;;0.50;0.30;;;28.60;54.20;;;;;;5053271;28;20444;-78
2022/04/16 09:02:35;;;;;;;0.50;0.30;;;29.40;51.60;;;;;;5054270;28;20444;-78
2022/04/16 09:05:05;;;;;;;0.50;0.30;;;29.20;49.80;;;;;;5053500;28;20869;-78
2022/04/16 09:07:32;;;;;;;0.50;0.40;;;27.70;50.30;;;;;;5052611;28;20439;-74
2022/04/16 09:10:09;;;;;;;0.60;0.50;;;26.20;52.70;;;;;;5052477;28;20502;-80
2022/04/16 09:12:39;;;;;;;41.27;1.13;;;25.90;52.80;;;;;;5053071;28;20998;-78
2022/04/16 09:15:07;;;;;;;0.50;0.30;;;25.30;53.00;;;;;;5053995;28;20444;-78
2022/04/16 09:17:36;;;;;;;2.30;0.77;;;23.80;54.20;;;;;;5053340;28;20441;-77
2022/04/16 09:20:03;;;;;;;0.50;0.30;;;24.10;55.50;;;;;;5052555;28;20434;-77
2022/04/16 09:22:31;;;;;;;0.50;0.30;;;24.30;54.30;;;;;;5051791;28;20445;-79
2022/04/16 09:24:58;;;;;;;0.50;0.37;;;23.30;53.20;;;;;;5055344;28;20432;-78
2022/04/16 09:27:25;;;;;;;0.50;0.30;;;23.40;54.80;;;;;;5056426;28;20802;-78
2022/04/16 09:29:53;;;;;;;0.50;0.40;;;23.80;54.30;;;;;;5055534;28;20499;-77
2022/04/16 09:32:24;;;;;;;0.60;0.50;;;23.70;54.20;;;;;;5057329;28;20938;-77
2022/04/16 09:34:53;;;;;;;0.60;0.50;;;24.10;54.00;;;;;;5057909;28;20449;-81
2022/04/16 09:37:22;;;;;;;0.50;0.30;;;23.80;52.90;;;;;;5056540;28;20451;-78
2022/04/16 09:39:49;;;;;;;0.77;0.67;;;23.50;55.60;;;;;;5055618;28;20441;-78
2022/04/16 09:42:25;;;;;;;0.50;0.40;;;23.90;52.50;;;;;;5059142;28;20441;-79
2022/04/16 09:44:52;;;;;;;0.50;0.40;;;23.70;52.00;;;;;;5057444;28;20445;-77
2022/04/16 09:47:24;;;;;;;0.57;0.40;;;24.30;53.30;;;;;;5056577;28;20443;-77
2022/04/16 09:49:53;;;;;;;0.60;0.47;;;24.50;52.90;;;;;;5055774;28;20452;-77
2022/04/16 09:52:24;;;;;;;0.50;0.40;;;25.90;53.60;;;;;;5055818;28;20448;-80
2022/04/16 09:54:52;;;;;;;0.97;0.60;;;26.60;50.80;;;;;;5055580;28;20503;-77
2022/04/16 09:57:23;;;;;;;0.50;0.30;;;27.20;49.70;;;;;;5055391;28;20448;-78
2022/04/16 09:59:53;;;;;;;0.50;0.30;;;27.10;49.20;;;;;;5054341;28;20422;-75
2022/04/16 10:02:20;;;;;;;0.50;0.30;;;26.70;49.60;;;;;;5055422;28;20449;-79
2022/04/16 10:04:48;;;;;;;0.50;0.40;;;25.80;50.00;;;;;;5054188;28;20826;-78
2022/04/16 10:07:16;;;;;;;1.67;1.57;;;26.10;49.70;;;;;;5054301;28;20966;-80
2022/04/16 10:09:45;;;;;;;1.57;1.40;;;26.40;48.60;;;;;;5053907;28;20437;-78
2022/04/16 10:15:06;;;;;;;0.57;0.37;;;25.20;49.70;;;;;;5054419;28;20444;-78
2022/04/16 10:17:36;;;;;;;0.63;0.50;;;25.40;48.70;;;;;;5054373;28;20435;-76
2022/04/16 10:20:09;;;;;;;0.90;0.70;;;25.00;49.30;;;;;;5054124;28;20430;-76
2022/04/16 10:22:37;;;;;;;0.50;0.30;;;24.80;50.90;;;;;;5054141;28;20498;-79
2022/04/16 10:25:06;;;;;;;0.80;0.60;;;25.20;51.20;;;;;;5055461;28;20431;-78
2022/04/16 10:27:39;;;;;;;0.80;0.80;;;24.80;49.90;;;;;;5054899;28;20894;-75
2022/04/16 10:30:10;;;;;;;0.50;0.30;;;24.50;50.90;;;;;;5053583;28;20934;-78
2022/04/16 10:32:39;;;;;;;0.60;0.50;;;25.20;53.40;;;;;;5054318;28;20521;-78
2022/04/16 10:35:12;;;;;;;0.50;0.40;;;26.50;51.10;;;;;;5055461;28;20441;-76
2022/04/16 10:37:42;;;;;;;0.50;0.40;;;26.60;49.50;;;;;;5056831;28;20437;-81
2022/04/16 10:40:17;;;;;;;0.70;0.57;;;26.30;48.40;;;;;;5058991;28;20860;-80
2022/04/16 10:42:48;;;;;;;0.60;0.50;;;26.20;47.00;;;;;;5060025;28;20447;-78
2022/04/16 10:45:15;;;;;;;0.50;0.30;;;26.60;46.20;;;;;;5060489;28;20433;-79
2022/04/16 10:47:43;;;;;;;0.73;0.73;;;26.40;46.70;;;;;;5057751;28;20441;-79
2022/04/16 10:50:15;;;;;;;0.60;0.60;;;26.30;48.00;;;;;;5053529;28;20445;-76
2022/04/16 10:52:53;;;;;;;0.73;0.50;;;26.70;48.40;;;;;;5054987;28;20418;-76
2022/04/16 10:55:23;;;;;;;0.53;0.40;;;26.00;46.20;;;;;;5054949;28;20437;-79
2022/04/16 10:58:00;;;;;;;0.50;0.30;;;25.20;46.30;;;;;;5055805;28;20594;-79
2022/04/16 11:00:37;;;;;;;0.57;0.43;;;25.30;49.50;;;;;;5054656;28;20425;-78
2022/04/16 11:03:08;;;;;;;0.50;0.40;;;25.50;48.90;;;;;;5055165;28;20544;-75
2022/04/16 11:05:36;;;;;;;1.57;0.70;;;25.60;48.00;;;;;;5055817;28;20429;-76
2022/04/16 11:08:05;;;;;;;0.50;0.30;;;26.30;47.70;;;;;;5055808;28;20445;-78
2022/04/16 11:10:33;;;;;;;0.50;0.40;;;26.70;47.10;;;;;;5053279;28;20465;-77
2022/04/16 11:13:01;;;;;;;2.20;2.10;;;26.70;46.10;;;;;;5054989;28;20515;-77
2022/04/16 11:15:29;;;;;;;2.70;1.43;;;26.00;47.40;;;;;;5056307;28;20445;-76
2022/04/16 11:17:56;;;;;;;0.50;0.30;;;26.00;48.20;;;;;;5055775;28;20448;-78
2022/04/16 11:20:23;;;;;;;0.50;0.30;;;25.60;47.90;;;;;;5054446;28;20823;-75
2022/04/16 11:22:50;;;;;;;0.50;0.30;;;26.10;47.60;;;;;;5056140;28;20503;-78
2022/04/16 11:25:22;;;;;;;4.03;2.20;;;26.60;48.40;;;;;;5055031;28;20476;-77
2022/04/16 11:36:07;;;;;;;0.50;0.40;;;25.40;47.20;;;;;;5055900;28;20644;-78
2022/04/16 11:38:35;;;;;;;0.60;0.50;;;25.20;47.90;;;;;;5056261;28;20442;-75
2022/04/16 11:41:05;;;;;;;0.50;0.30;;;25.50;49.20;;;;;;5056006;28;20433;-77
2022/04/16 11:43:33;;;;;;;0.50;0.30;;;25.40;47.90;;;;;;5055478;28;20528;-77
2022/04/16 11:46:02;;;;;;;0.50;0.30;;;25.50;48.20;;;;;;5055526;28;20433;-77
2022/04/16 11:48:29;;;;;;;0.70;0.50;;;26.10;50.80;;;;;;5054783;28;20441;-76
2022/04/16 11:50:56;;;;;;;0.50;0.30;;;26.40;47.90;;;;;;5054471;28;20469;-79
2022/04/16 11:53:23;;;;;;;0.50;0.30;;;26.90;47.50;;;;;;5054620;28;20468;-77
2022/04/16 11:55:51;;;;;;;0.50;0.30;;;27.30;46.30;;;;;;5054353;28;20440;-78
2022/04/16 11:58:27;;;;;;;0.83;0.40;;;27.60;46.80;;;;;;5054175;28;20444;-78
2022/04/16 12:00:55;;;;;;;5.23;2.30;;;27.00;43.60;;;;;;5051937;28;20432;-78
2022/04/16 12:03:22;;;;;;;1.33;0.70;;;26.70;44.70;;;;;;5055010;28;20514;-78
2022/04/16 12:05:50;;;;;;;0.50;0.30;;;25.90;46.10;;;;;;5055700;28;20441;-79
2022/04/16 12:08:20;;;;;;;0.50;0.30;;;25.80;44.40;;;;;;5052963;28;20448;-79
2022/04/16 12:10:47;;;;;;;0.50;0.30;;;25.50;45.20;;;;;;5051903;28;20476;-78
2022/04/16 12:13:16;;;;;;;0.50;0.30;;;25.80;46.00;;;;;;5053037;28;20453;-79
2022/04/16 12:15:46;;;;;;;0.50;0.40;;;26.10;47.50;;;;;;5051652;28;20437;-79
2022/04/16 12:18:15;;;;;;;1.53;1.43;;;25.90;44.20;;;;;;5052815;28;20439;-79
2022/04/16 12:20:43;;;;;;;0.50;0.30;;;25.60;45.60;;;;;;5052408;28;20440;-78
2022/04/16 12:23:13;;;;;;;0.50;0.30;;;25.70;45.50;;;;;;5051660;28;20479;-79
2022/04/16 12:25:41;;;;;;;0.50;0.47;;;26.30;45.60;;;;;;5053493;28;20425;-80
2022/04/16 12:28:11;;;;;;;0.50;0.30;;;26.70;45.00;;;;;;5052101;28;20445;-80
2022/04/16 12:30:38;;;;;;;0.50;0.40;;;27.10;44.70;;;;;;5051870;28;20414;-76
2022/04/16 12:33:10;;;;;;;0.50;0.30;;;27.00;43.30;;;;;;5052302;28;20466;-79
2022/04/16 12:35:38;;;;;;;0.80;0.80;;;26.80;43.00;;;;;;5052135;28;20441;-79
2022/04/16 12:38:05;;;;;;;0.77;0.70;;;25.60;42.90;;;;;;5051417;28;21050;-76
2022/04/16 12:40:33;;;;;;;3.23;0.90;;;25.30;45.70;;;;;;5051709;28;20528;-79
2022/04/16 12:43:01;;;;;;;0.50;0.40;;;25.60;46.50;;;;;;5051910;28;20461;-78
2022/04/16 12:45:30;;;;;;;0.50;0.37;;;26.00;43.50;;;;;;5051857;28;20445;-79
2022/04/16 12:47:57;;;;;;;0.80;0.80;;;25.90;43.00;;;;;;5051080;28;20491;-79
2022/04/16 12:50:26;;;;;;;0.50;0.30;;;26.00;43.10;;;;;;5050762;28;20437;-79
2022/04/16 12:52:53;;;;;;;0.50;0.30;;;25.60;43.20;;;;;;5050893;28;20476;-79
2022/04/16 12:55:20;;;;;;;0.50;0.30;;;26.00;43.70;;;;;;5051050;28;20445;-79
2022/04/16 12:57:46;;;;;;;0.50;0.30;;;26.00;42.20;;;;;;5050870;28;20919;-78
2022/04/16 13:00:16;;;;;;;1.00;0.83;;;25.70;43.80;;;;;;5051386;28;20798;-79
2022/04/16 13:02:44;;;;;;;0.60;0.60;;;26.30;44.10;;;;;;5055185;28;20437;-78
2022/04/16 13:05:13;;;;;;;0.50;0.30;;;26.30;43.70;;;;;;5055087;28;20874;-79
2022/04/16 13:07:41;;;;;;;0.50;0.30;;;26.50;44.10;;;;;;5054858;28;20425;-79
2022/04/16 13:10:09;;;;;;;0.50;0.30;;;25.60;41.60;;;;;;5054358;28;20761;-79
2022/04/16 13:12:37;;;;;;;0.50;0.40;;;25.30;43.00;;;;;;5055072;28;20480;-79
2022/04/16 13:15:05;;;;;;;0.50;0.30;;;25.10;44.60;;;;;;5054954;28;20857;-79
2022/04/16 13:17:31;;;;;;;0.50;0.30;;;25.30;45.00;;;;;;5054668;28;20440;-78
2022/04/16 13:19:59;;;;;;;0.50;0.40;;;25.80;43.70;;;;;;5054480;28;20460;-79
2022/04/16 13:22:26;;;;;;;0.50;0.40;;;26.60;44.90;;;;;;5055127;28;20437;-76
2022/04/16 13:24:54;;;;;;;0.50;0.30;;;26.80;42.50;;;;;;5054201;28;20451;-79